Time;durP1;ratioP1;P1;durP2;ratioP2;P2;SDS_P1;SDS_P2;PMS_P1;PMS_P2;Temp;Humidity;BMP_temperature;BMP_pressure;BME280_temperature;BME280_humidity;BME280_pressure;Samples;Min_cycle;Max_cycle;Signal;HPM_P1;HPM_P2
2021/04/09 00:00:40;;;;;;;6.55;4.70;;;-2.10;99.90;;;;;;2082388;28;20606;-67
2021/04/09 00:01:44;;;;;;;7.40;4.73;;;-2.10;99.90;;;;;;2082392;28;20208;-67
2021/04/09 00:02:45;;;;;;;9.43;4.43;;;-2.10;99.90;;;;;;2081815;28;20616;-67
2021/04/09 00:03:46;;;;;;;7.80;4.47;;;-2.10;99.90;;;;;;2082005;28;20181;-67
2021/04/09 00:04:47;;;;;;;6.20;4.23;;;-2.10;99.90;;;;;;2082360;28;20193;-67
2021/04/09 00:05:48;;;;;;;7.65;3.92;;;-2.10;99.90;;;;;;2082508;28;20181;-67
2021/04/09 00:06:49;;;;;;;5.23;4.33;;;-2.20;99.90;;;;;;2082506;28;20174;-67
2021/04/09 00:07:50;;;;;;;6.68;4.28;;;-2.10;99.90;;;;;;2081827;28;20660;-67
2021/04/09 00:08:51;;;;;;;6.60;4.43;;;-2.10;99.90;;;;;;2073744;28;20256;-67
2021/04/09 00:09:52;;;;;;;6.75;4.25;;;-2.20;99.90;;;;;;2081776;28;20188;-67
2021/04/09 00:10:52;;;;;;;7.27;4.63;;;-2.10;99.90;;;;;;2082300;28;20652;-67
2021/04/09 00:11:54;;;;;;;6.53;4.33;;;-2.20;99.90;;;;;;2082061;28;20274;-67
2021/04/09 00:12:56;;;;;;;8.75;5.10;;;-2.20;99.90;;;;;;2082169;28;20184;-67
2021/04/09 00:13:56;;;;;;;7.05;4.65;;;-2.20;99.90;;;;;;2081813;28;20192;-67
2021/04/09 00:14:57;;;;;;;6.57;4.20;;;-2.20;99.90;;;;;;2081433;28;20232;-67
2021/04/09 00:15:58;;;;;;;7.60;4.43;;;-2.20;99.90;;;;;;2082569;28;20189;-67
2021/04/09 00:16:58;;;;;;;6.47;4.23;;;-2.20;99.90;;;;;;2082260;28;20181;-67
2021/04/09 00:17:59;;;;;;;6.20;4.10;;;-2.20;99.90;;;;;;2082178;28;20177;-67
2021/04/09 00:19:01;;;;;;;5.67;3.50;;;-2.20;99.90;;;;;;2082254;28;20185;-67
2021/04/09 00:20:04;;;;;;;6.78;4.18;;;-2.20;99.90;;;;;;2082251;28;20567;-67
2021/04/09 00:21:05;;;;;;;8.00;4.50;;;-2.20;99.90;;;;;;2082324;28;20197;-67
2021/04/09 00:22:06;;;;;;;7.00;4.55;;;-2.20;99.90;;;;;;2081919;28;20180;-67
2021/04/09 00:23:07;;;;;;;7.27;4.47;;;-2.20;99.90;;;;;;2082441;28;20185;-67
2021/04/09 00:24:08;;;;;;;5.77;4.17;;;-2.20;99.90;;;;;;2081967;28;20215;-67
2021/04/09 00:25:11;;;;;;;6.93;4.30;;;-2.20;99.90;;;;;;2081374;28;20214;-67
2021/04/09 00:26:11;;;;;;;5.95;4.30;;;-2.20;99.90;;;;;;2073490;28;20190;-67
2021/04/09 00:27:12;;;;;;;6.03;4.17;;;-2.20;99.90;;;;;;2081654;28;20177;-67
2021/04/09 00:28:13;;;;;;;5.97;3.90;;;-2.20;99.90;;;;;;2082320;28;20181;-66
2021/04/09 00:29:14;;;;;;;6.80;4.00;;;-2.20;99.90;;;;;;2082375;28;20177;-67
2021/04/09 00:30:24;;;;;;;5.10;4.03;;;-2.20;99.90;;;;;;2081642;28;20205;-66
2021/04/09 00:31:25;;;;;;;6.00;4.13;;;-2.20;99.90;;;;;;2081776;28;20239;-67
2021/04/09 00:32:25;;;;;;;4.70;3.73;;;-2.20;99.90;;;;;;2082148;28;20235;-66
2021/04/09 00:33:26;;;;;;;5.83;3.67;;;-2.30;99.90;;;;;;2082130;28;20268;-67
2021/04/09 00:34:27;;;;;;;5.43;3.80;;;-2.20;99.90;;;;;;2081869;28;20256;-67
2021/04/09 00:35:28;;;;;;;6.13;3.93;;;-2.20;99.90;;;;;;2082158;28;20187;-67
2021/04/09 00:36:29;;;;;;;6.00;4.27;;;-2.30;99.90;;;;;;2082102;28;20177;-67
2021/04/09 00:37:29;;;;;;;8.73;4.03;;;-2.20;99.90;;;;;;2082264;28;20188;-67
2021/04/09 00:38:30;;;;;;;5.33;4.00;;;-2.30;99.90;;;;;;2082012;28;20336;-67
2021/04/09 00:39:31;;;;;;;6.33;4.00;;;-2.30;99.90;;;;;;2081187;28;20185;-67
2021/04/09 00:40:31;;;;;;;8.47;4.47;;;-2.30;99.90;;;;;;2081768;28;20226;-67
2021/04/09 00:41:33;;;;;;;6.23;3.77;;;-2.40;99.90;;;;;;2081958;28;20613;-67
2021/04/09 00:42:34;;;;;;;7.05;4.35;;;-2.40;99.90;;;;;;2081465;28;20192;-67
2021/04/09 00:43:34;;;;;;;5.47;3.83;;;-2.40;99.90;;;;;;2081573;28;20192;-67
2021/04/09 00:44:35;;;;;;;5.67;4.10;;;-2.40;99.90;;;;;;2081875;28;20227;-67
2021/04/09 00:45:37;;;;;;;5.23;3.53;;;-2.40;99.90;;;;;;2082007;28;20180;-67
2021/04/09 00:46:39;;;;;;;6.32;4.20;;;-2.50;99.90;;;;;;2081937;28;20177;-67
2021/04/09 00:47:43;;;;;;;8.55;4.22;;;-2.40;99.90;;;;;;2082056;28;20184;-67
2021/04/09 00:48:44;;;;;;;7.30;4.10;;;-2.40;99.90;;;;;;2081921;28;20170;-67
2021/04/09 00:49:45;;;;;;;6.43;4.50;;;-2.40;99.90;;;;;;2078816;28;20207;-67
2021/04/09 00:50:45;;;;;;;6.93;4.20;;;-2.40;99.90;;;;;;2081926;28;20181;-67
2021/04/09 00:51:46;;;;;;;5.40;3.83;;;-2.40;99.90;;;;;;2081779;28;20196;-67
2021/04/09 00:52:47;;;;;;;8.70;4.07;;;-2.40;99.90;;;;;;2081295;28;20178;-67
2021/04/09 00:53:48;;;;;;;6.75;3.85;;;-2.30;99.90;;;;;;2081341;28;20623;-67
2021/04/09 00:54:50;;;;;;;5.55;4.18;;;-2.30;99.90;;;;;;2073189;28;20206;-67
2021/04/09 00:55:51;;;;;;;6.78;4.38;;;-2.30;99.90;;;;;;2081329;28;20178;-67
2021/04/09 00:56:53;;;;;;;5.38;3.70;;;-2.30;99.90;;;;;;2081170;28;20205;-67
2021/04/09 00:57:58;;;;;;;5.88;4.18;;;-2.20;99.90;;;;;;2073281;28;20169;-67
2021/04/09 00:59:01;;;;;;;6.97;3.78;;;-2.30;99.90;;;;;;2081394;28;20312;-67
2021/04/09 01:00:05;;;;;;;5.78;3.92;;;-2.30;99.90;;;;;;2081884;28;20243;-67
2021/04/09 01:01:07;;;;;;;7.93;4.03;;;-2.30;99.90;;;;;;2081785;28;20734;-67
2021/04/09 01:02:07;;;;;;;8.23;3.90;;;-2.20;99.90;;;;;;2081730;28;20563;-67
2021/04/09 01:03:08;;;;;;;7.33;3.90;;;-2.30;99.90;;;;;;2081870;28;20177;-67
2021/04/09 01:04:09;;;;;;;7.40;4.40;;;-2.30;99.90;;;;;;2081967;28;20182;-67
2021/04/09 01:05:15;;;;;;;6.53;4.00;;;-2.30;99.90;;;;;;2081178;28;20786;-67
2021/04/09 01:06:17;;;;;;;6.60;4.05;;;-2.30;99.90;;;;;;2081470;28;20250;-67
2021/04/09 01:07:18;;;;;;;8.48;4.13;;;-2.30;99.90;;;;;;2081078;28;20189;-67
2021/04/09 01:08:19;;;;;;;6.10;4.25;;;-2.30;99.90;;;;;;2081281;28;20267;-66
2021/04/09 01:09:20;;;;;;;6.00;3.97;;;-2.30;99.90;;;;;;2081753;28;20192;-67
2021/04/09 01:10:21;;;;;;;8.07;4.13;;;-2.20;99.90;;;;;;2081275;28;20188;-67
2021/04/09 01:11:22;;;;;;;6.38;4.07;;;-2.30;99.90;;;;;;2080982;28;20169;-67
2021/04/09 01:12:23;;;;;;;6.27;4.10;;;-2.30;99.90;;;;;;2081803;28;20219;-67
2021/04/09 01:13:24;;;;;;;5.30;3.90;;;-2.20;99.90;;;;;;2081864;28;20181;-67
2021/04/09 01:14:24;;;;;;;6.75;4.07;;;-2.20;99.90;;;;;;2081733;28;20212;-67
2021/04/09 01:15:25;;;;;;;6.47;3.97;;;-2.20;99.90;;;;;;2081728;28;20263;-67
2021/04/09 01:16:42;;;;;;;5.43;3.70;;;-2.20;99.90;;;;;;2081957;28;20263;-66
2021/04/09 01:17:58;;;;;;;5.13;3.78;;;-2.20;99.90;;;;;;2081062;28;20211;-67
2021/04/09 01:19:38;;;;;;;7.22;3.90;;;-2.20;99.90;;;;;;2075248;28;20178;-67
2021/04/09 01:21:22;;;;;;;5.43;3.55;;;-2.20;99.90;;;;;;2078444;28;20170;-67
2021/04/09 01:22:26;;;;;;;8.30;3.83;;;-2.20;99.90;;;;;;2078552;28;20182;-66
2021/04/09 01:23:51;;;;;;;6.28;3.50;;;-2.20;99.90;;;;;;2073391;28;20182;-67
2021/04/09 01:25:15;;;;;;;5.50;3.97;;;-2.30;99.90;;;;;;2076485;28;20274;-67
2021/04/09 01:27:02;;;;;;;5.13;3.50;;;-2.30;99.90;;;;;;2076090;28;20180;-67
2021/04/09 01:28:17;;;;;;;4.93;3.35;;;-2.40;99.90;;;;;;2081706;28;20545;-67
2021/04/09 01:29:28;;;;;;;7.00;3.13;;;-2.50;99.90;;;;;;2081338;28;20173;-67
2021/04/09 01:31:16;;;;;;;4.85;3.50;;;-2.50;99.90;;;;;;2081338;28;20219;-67
2021/04/09 01:32:18;;;;;;;4.68;3.30;;;-2.50;99.90;;;;;;2065800;28;20233;-66
2021/04/09 01:33:30;;;;;;;5.45;3.60;;;-2.50;99.90;;;;;;2081276;28;20588;-67
2021/04/09 01:35:03;;;;;;;5.53;3.88;;;-2.50;99.90;;;;;;2081258;28;20181;-67
2021/04/09 01:36:16;;;;;;;4.50;3.47;;;-2.50;99.90;;;;;;2077126;28;20193;-67
2021/04/09 01:37:22;;;;;;;5.63;3.45;;;-2.50;99.90;;;;;;2081224;28;20188;-67
2021/04/09 01:38:27;;;;;;;6.57;3.95;;;-2.50;99.90;;;;;;2081201;28;20161;-67
2021/04/09 01:39:35;;;;;;;5.75;3.92;;;-2.50;99.90;;;;;;2081742;28;20188;-67
2021/04/09 01:40:43;;;;;;;5.95;4.20;;;-2.40;99.90;;;;;;2081514;28;20181;-67
2021/04/09 01:41:45;;;;;;;6.90;4.53;;;-2.40;99.90;;;;;;2081138;28;20172;-67
2021/04/09 01:42:53;;;;;;;6.40;4.20;;;-2.50;99.90;;;;;;2081881;28;20177;-69
2021/04/09 01:43:58;;;;;;;5.60;3.90;;;-2.50;99.90;;;;;;2081312;28;20193;-67
2021/04/09 01:45:00;;;;;;;5.88;3.95;;;-2.40;99.90;;;;;;2073339;28;20197;-67
2021/04/09 01:46:02;;;;;;;5.18;3.63;;;-2.40;99.90;;;;;;2073050;28;20233;-67
2021/04/09 01:47:05;;;;;;;7.82;3.67;;;-2.40;99.90;;;;;;2073008;28;20240;-67
2021/04/09 01:48:10;;;;;;;4.93;3.60;;;-2.30;99.90;;;;;;2081184;28;20181;-67
2021/04/09 01:49:12;;;;;;;6.25;3.78;;;-2.30;99.90;;;;;;2081592;28;20562;-67
2021/04/09 01:50:15;;;;;;;7.95;4.38;;;-2.30;99.90;;;;;;2080924;28;20276;-67
2021/04/09 01:51:19;;;;;;;5.57;3.60;;;-2.40;99.90;;;;;;2072846;28;20182;-66
2021/04/09 01:52:21;;;;;;;5.68;4.10;;;-2.40;99.90;;;;;;2073293;28;20178;-67
2021/04/09 01:53:26;;;;;;;7.20;4.25;;;-2.40;99.90;;;;;;2073382;28;20185;-67
2021/04/09 01:54:30;;;;;;;6.47;4.03;;;-2.50;99.90;;;;;;2073284;28;20316;-67
2021/04/09 01:55:33;;;;;;;4.93;3.70;;;-2.50;99.90;;;;;;2073230;28;20244;-66
2021/04/09 01:56:35;;;;;;;8.27;4.22;;;-2.50;99.90;;;;;;2073250;28;20197;-67
2021/04/09 01:57:39;;;;;;;6.75;4.40;;;-2.50;99.90;;;;;;2072979;28;20402;-67
2021/04/09 01:58:41;;;;;;;5.32;3.97;;;-2.50;99.90;;;;;;2081112;28;20185;-67
2021/04/09 01:59:42;;;;;;;5.78;4.35;;;-2.50;99.90;;;;;;2080818;28;20200;-67
2021/04/09 02:00:43;;;;;;;8.45;4.10;;;-2.50;99.90;;;;;;2072761;28;20193;-67
2021/04/09 02:01:45;;;;;;;6.87;4.73;;;-2.50;99.90;;;;;;2080936;28;20189;-67
2021/04/09 02:02:49;;;;;;;8.23;4.65;;;-2.40;99.90;;;;;;2081572;28;20185;-67
2021/04/09 02:03:52;;;;;;;8.10;4.55;;;-2.40;99.90;;;;;;2081571;28;20184;-67
2021/04/09 02:04:54;;;;;;;7.78;4.90;;;-2.50;99.90;;;;;;2080969;28;20189;-67
2021/04/09 02:05:56;;;;;;;7.72;4.80;;;-2.40;99.90;;;;;;2072801;28;20602;-67
2021/04/09 02:06:57;;;;;;;8.80;4.85;;;-2.40;99.90;;;;;;2072715;28;20185;-67
2021/04/09 02:07:59;;;;;;;7.45;4.43;;;-2.40;99.90;;;;;;2072854;28;20190;-67
2021/04/09 02:09:01;;;;;;;6.38;4.45;;;-2.40;99.90;;;;;;2072945;28;20176;-68
2021/04/09 02:10:04;;;;;;;9.02;4.18;;;-2.40;99.90;;;;;;2080815;28;20245;-67
2021/04/09 02:11:05;;;;;;;7.05;4.38;;;-2.40;99.90;;;;;;2080884;28;20193;-67
2021/04/09 02:12:07;;;;;;;5.10;3.90;;;-2.30;99.90;;;;;;2072581;28;20620;-67
2021/04/09 02:13:08;;;;;;;5.10;3.75;;;-2.40;99.90;;;;;;2072735;28;20567;-67
2021/04/09 02:14:14;;;;;;;5.78;4.22;;;-2.40;99.90;;;;;;2072765;28;20197;-66
2021/04/09 02:15:21;;;;;;;5.78;4.22;;;-2.40;99.90;;;;;;2080787;28;20204;-67
2021/04/09 02:16:23;;;;;;;6.85;3.92;;;-2.40;99.90;;;;;;2080721;28;20616;-67
2021/04/09 02:17:23;;;;;;;5.32;3.30;;;-2.40;99.90;;;;;;2072690;28;20659;-68
2021/04/09 02:18:28;;;;;;;5.47;3.90;;;-2.40;99.90;;;;;;2080955;28;20213;-67
2021/04/09 02:19:29;;;;;;;6.38;3.95;;;-2.40;99.90;;;;;;2081431;28;20181;-66
2021/04/09 02:20:30;;;;;;;5.75;3.75;;;-2.40;99.90;;;;;;2081500;28;20177;-66
2021/04/09 02:21:38;;;;;;;7.47;3.80;;;-2.40;99.90;;;;;;2080591;28;20199;-67
2021/04/09 02:22:41;;;;;;;5.45;3.72;;;-2.40;99.90;;;;;;2078332;28;20272;-67
2021/04/09 02:23:41;;;;;;;5.05;3.65;;;-2.40;99.90;;;;;;2073121;28;20178;-66
2021/04/09 02:24:42;;;;;;;6.33;3.97;;;-2.40;99.90;;;;;;2072828;28;20177;-67
2021/04/09 02:25:43;;;;;;;5.27;3.50;;;-2.40;99.90;;;;;;2073326;28;20249;-67
2021/04/09 02:26:44;;;;;;;5.87;3.63;;;-2.40;99.90;;;;;;2073410;28;20621;-67
2021/04/09 02:27:46;;;;;;;7.68;3.70;;;-2.40;99.90;;;;;;2073462;28;20170;-67
2021/04/09 02:28:47;;;;;;;6.05;3.38;;;-2.40;99.90;;;;;;2072585;28;20182;-67
2021/04/09 02:29:48;;;;;;;5.67;3.30;;;-2.40;99.90;;;;;;2072568;28;20710;-66
2021/04/09 02:31:02;;;;;;;7.82;3.75;;;-2.40;99.90;;;;;;2072666;28;20185;-67
2021/04/09 02:32:04;;;;;;;6.18;3.75;;;-2.40;99.90;;;;;;2072602;28;20172;-67
2021/04/09 02:33:05;;;;;;;4.90;3.63;;;-2.40;99.90;;;;;;2072466;28;20190;-67
2021/04/09 02:34:05;;;;;;;5.28;3.45;;;-2.40;99.90;;;;;;2072621;28;20232;-67
2021/04/09 02:35:08;;;;;;;6.63;4.40;;;-2.40;99.90;;;;;;2072996;28;20606;-67
2021/04/09 02:36:17;;;;;;;5.15;3.70;;;-2.40;99.90;;;;;;2073392;28;20251;-67
2021/04/09 02:37:19;;;;;;;4.95;3.35;;;-2.40;99.90;;;;;;2072572;28;20225;-67
2021/04/09 02:38:20;;;;;;;5.70;3.53;;;-2.40;99.90;;;;;;2064618;28;20183;-67
2021/04/09 02:39:26;;;;;;;6.53;3.58;;;-2.50;99.90;;;;;;2064337;28;20187;-67
2021/04/09 02:40:34;;;;;;;5.68;4.00;;;-2.50;99.90;;;;;;2072557;28;20640;-67
2021/04/09 02:41:47;;;;;;;3.70;3.30;;;-2.50;99.90;;;;;;2072281;28;20178;-67
2021/04/09 02:42:51;;;;;;;5.32;3.42;;;-2.50;99.90;;;;;;2072497;28;20162;-67
2021/04/09 02:43:52;;;;;;;5.30;3.70;;;-2.50;99.90;;;;;;2064954;28;20183;-67
2021/04/09 02:44:54;;;;;;;5.60;3.57;;;-2.50;99.90;;;;;;2072498;28;20280;-66
2021/04/09 02:45:56;;;;;;;6.30;3.95;;;-2.50;99.90;;;;;;2072631;28;20201;-67
2021/04/09 02:47:06;;;;;;;6.05;3.75;;;-2.60;99.90;;;;;;2056383;28;20732;-67
2021/04/09 02:48:10;;;;;;;7.57;3.97;;;-2.50;99.90;;;;;;2058923;28;20171;-67
2021/04/09 02:49:19;;;;;;;7.13;3.88;;;-2.50;99.90;;;;;;2064484;28;20186;-67
2021/04/09 02:50:33;;;;;;;5.88;3.45;;;-2.50;99.90;;;;;;2065497;28;20802;-67
2021/04/09 02:51:35;;;;;;;5.03;4.35;;;-2.50;99.90;;;;;;2065946;28;20248;-67
2021/04/09 02:52:44;;;;;;;6.53;4.40;;;-2.60;99.90;;;;;;2064452;28;20179;-67
2021/04/09 02:53:46;;;;;;;7.65;4.63;;;-2.50;99.90;;;;;;2065512;28;20170;-67
2021/04/09 02:54:54;;;;;;;9.00;4.70;;;-2.50;99.90;;;;;;2064481;28;20253;-67
2021/04/09 02:55:56;;;;;;;9.32;4.60;;;-2.60;99.90;;;;;;2065224;28;20265;-67
2021/04/09 02:56:58;;;;;;;6.82;4.80;;;-2.60;99.90;;;;;;2064783;28;20187;-67
2021/04/09 02:58:00;;;;;;;7.70;4.82;;;-2.60;99.90;;;;;;2065561;28;20702;-67
2021/04/09 02:59:01;;;;;;;6.88;5.00;;;-2.60;99.90;;;;;;2056520;28;20183;-67
2021/04/09 03:00:07;;;;;;;9.07;5.10;;;-2.60;99.90;;;;;;2064129;28;20221;-67
2021/04/09 03:01:08;;;;;;;6.53;4.75;;;-2.60;99.90;;;;;;2072410;28;20579;-67
2021/04/09 03:02:09;;;;;;;5.47;4.50;;;-2.60;99.90;;;;;;2072118;28;20184;-67
2021/04/09 03:03:10;;;;;;;5.20;4.30;;;-2.60;99.90;;;;;;2072604;28;20209;-67
2021/04/09 03:04:13;;;;;;;6.45;4.40;;;-2.60;99.90;;;;;;2072233;28;20174;-67
2021/04/09 03:05:15;;;;;;;6.85;4.43;;;-2.60;99.90;;;;;;2072276;28;20202;-67
2021/04/09 03:06:16;;;;;;;7.15;4.97;;;-2.50;99.90;;;;;;2072355;28;20711;-67
2021/04/09 03:07:18;;;;;;;6.03;4.70;;;-2.60;99.90;;;;;;2072496;28;20186;-67
2021/04/09 03:08:20;;;;;;;6.82;4.18;;;-2.60;99.90;;;;;;2072947;28;20185;-67
2021/04/09 03:09:21;;;;;;;6.47;4.68;;;-2.60;99.90;;;;;;2072567;28;20186;-71
2021/04/09 03:10:21;;;;;;;7.77;4.73;;;-2.50;99.90;;;;;;2072406;28;20223;-67
2021/04/09 03:11:22;;;;;;;5.53;4.17;;;-2.60;99.90;;;;;;2072923;28;20193;-67
2021/04/09 03:12:23;;;;;;;6.40;4.47;;;-2.60;99.90;;;;;;2072905;28;20238;-67
2021/04/09 03:13:24;;;;;;;6.07;4.50;;;-2.60;99.90;;;;;;2072934;28;20182;-67
2021/04/09 03:14:26;;;;;;;7.53;4.70;;;-2.50;99.90;;;;;;2072757;28;20182;-67
2021/04/09 03:15:31;;;;;;;6.22;4.28;;;-2.60;99.90;;;;;;2072118;28;20264;-67
2021/04/09 03:16:50;;;;;;;6.78;4.68;;;-2.60;99.90;;;;;;2072138;28;20192;-67
2021/04/09 03:18:02;;;;;;;5.97;4.25;;;-2.60;99.90;;;;;;2072300;28;20638;-67
2021/04/09 03:19:03;;;;;;;6.45;4.20;;;-2.60;99.90;;;;;;2065626;28;20598;-67
2021/04/09 03:20:08;;;;;;;4.77;4.27;;;-2.60;99.90;;;;;;2072496;28;20233;-67
2021/04/09 03:21:08;;;;;;;6.10;4.75;;;-2.60;99.90;;;;;;2080187;28;20263;-67
2021/04/09 03:22:12;;;;;;;7.90;4.60;;;-2.70;99.90;;;;;;2080269;28;20181;-67
2021/04/09 03:23:13;;;;;;;7.68;4.15;;;-2.70;99.90;;;;;;2072757;28;20257;-67
2021/04/09 03:24:14;;;;;;;6.93;4.73;;;-2.70;99.90;;;;;;2072804;28;20268;-67
2021/04/09 03:25:15;;;;;;;10.00;4.70;;;-2.60;99.90;;;;;;2072440;28;20252;-67
2021/04/09 03:26:16;;;;;;;6.70;4.30;;;-2.70;99.90;;;;;;2072067;28;20174;-67
2021/04/09 03:27:16;;;;;;;5.70;4.47;;;-2.60;99.90;;;;;;2071983;28;20217;-67
2021/04/09 03:28:17;;;;;;;7.30;4.77;;;-2.60;99.90;;;;;;2072718;28;20178;-67
2021/04/09 03:29:18;;;;;;;8.90;4.50;;;-2.60;99.90;;;;;;2072649;28;20186;-67
2021/04/09 03:30:21;;;;;;;8.90;4.43;;;-2.60;99.90;;;;;;2072802;28;20420;-67
2021/04/09 03:31:22;;;;;;;7.40;4.40;;;-2.60;99.90;;;;;;2071799;28;20272;-67
2021/04/09 03:32:22;;;;;;;6.67;4.53;;;-2.60;99.90;;;;;;2072089;28;20185;-67
2021/04/09 03:33:26;;;;;;;6.37;4.73;;;-2.60;99.90;;;;;;2072607;28;20178;-67
2021/04/09 03:34:27;;;;;;;5.03;4.05;;;-2.60;99.90;;;;;;2072064;28;20565;-67
2021/04/09 03:35:28;;;;;;;5.90;4.30;;;-2.60;99.90;;;;;;2072042;28;20243;-67
2021/04/09 03:36:28;;;;;;;4.97;4.33;;;-2.60;99.90;;;;;;2072718;28;20182;-67
2021/04/09 03:37:29;;;;;;;5.93;4.40;;;-2.60;99.90;;;;;;2072561;28;20200;-67
2021/04/09 03:38:30;;;;;;;6.73;4.30;;;-2.60;99.90;;;;;;2072691;28;20224;-67
2021/04/09 03:39:30;;;;;;;6.63;4.50;;;-2.60;99.90;;;;;;2072501;28;20186;-67
2021/04/09 03:40:31;;;;;;;6.07;4.30;;;-2.60;99.90;;;;;;2072678;28;20182;-67
2021/04/09 03:41:32;;;;;;;6.07;4.30;;;-2.50;99.90;;;;;;2072363;28;20181;-67
2021/04/09 03:42:33;;;;;;;8.00;4.17;;;-2.60;99.90;;;;;;2072632;28;20687;-67
2021/04/09 03:43:33;;;;;;;6.32;4.13;;;-2.60;99.90;;;;;;2072594;28;20193;-67
2021/04/09 03:44:34;;;;;;;7.87;4.90;;;-2.60;99.90;;;;;;2072620;28;20182;-67
2021/04/09 03:45:35;;;;;;;8.03;4.17;;;-2.60;99.90;;;;;;2072546;28;20184;-67
2021/04/09 03:46:35;;;;;;;6.77;4.30;;;-2.60;99.90;;;;;;2071969;28;20670;-67
2021/04/09 03:47:36;;;;;;;6.27;4.03;;;-2.60;99.90;;;;;;2071875;28;20220;-67
2021/04/09 03:48:37;;;;;;;5.95;4.35;;;-2.60;99.90;;;;;;2071982;28;20288;-67
2021/04/09 03:49:38;;;;;;;7.67;4.50;;;-2.70;99.90;;;;;;2071890;28;20182;-67
2021/04/09 03:50:38;;;;;;;6.87;4.63;;;-2.70;99.90;;;;;;2072622;28;20186;-67
2021/04/09 03:51:39;;;;;;;6.30;4.40;;;-2.60;99.90;;;;;;2072336;28;20186;-67
2021/04/09 03:52:40;;;;;;;6.73;4.23;;;-2.60;99.90;;;;;;2072535;28;20178;-68
2021/04/09 03:53:41;;;;;;;6.10;4.30;;;-2.60;99.90;;;;;;2071830;28;20564;-67
2021/04/09 03:54:41;;;;;;;6.30;4.37;;;-2.60;99.90;;;;;;2071940;28;20174;-67
2021/04/09 03:55:42;;;;;;;6.30;4.27;;;-2.70;99.90;;;;;;2072588;28;20531;-67
2021/04/09 03:56:43;;;;;;;7.70;5.00;;;-2.60;99.90;;;;;;2072566;28;20572;-67
2021/04/09 03:57:44;;;;;;;8.77;4.63;;;-2.60;99.90;;;;;;2072504;28;20174;-67
2021/04/09 03:58:44;;;;;;;6.60;3.88;;;-2.60;99.90;;;;;;2072467;28;20174;-67
2021/04/09 03:59:45;;;;;;;5.80;3.73;;;-2.50;99.90;;;;;;2072524;28;20699;-67
2021/04/09 04:00:46;;;;;;;6.00;3.90;;;-2.50;99.90;;;;;;2072551;28;20269;-67
2021/04/09 04:01:47;;;;;;;6.10;3.60;;;-2.40;99.90;;;;;;2072346;28;20178;-67
2021/04/09 04:02:51;;;;;;;6.00;4.50;;;-2.40;99.90;;;;;;2072571;28;20181;-67
2021/04/09 04:03:52;;;;;;;7.88;3.83;;;-2.40;99.90;;;;;;2071992;28;20448;-67
2021/04/09 04:04:53;;;;;;;10.70;6.03;;;-2.30;99.90;;;;;;2071662;28;20687;-67
2021/04/09 04:05:54;;;;;;;19.80;10.63;;;-2.30;99.90;;;;;;2072701;28;20182;-67
2021/04/09 04:06:54;;;;;;;15.73;8.97;;;-2.40;99.90;;;;;;2072436;28;20240;-67
2021/04/09 04:07:55;;;;;;;15.30;8.07;;;-2.40;99.90;;;;;;2072597;28;20177;-67
2021/04/09 04:08:56;;;;;;;11.17;6.87;;;-2.30;99.90;;;;;;2073658;28;20186;-67
2021/04/09 04:09:56;;;;;;;14.53;8.27;;;-2.30;99.90;;;;;;2073830;28;20178;-67
2021/04/09 04:10:57;;;;;;;10.90;7.10;;;-2.30;99.90;;;;;;2073689;28;20178;-67
2021/04/09 04:11:58;;;;;;;8.90;4.77;;;-2.30;99.90;;;;;;2073736;28;20178;-67
2021/04/09 04:12:59;;;;;;;7.55;4.95;;;-2.30;99.90;;;;;;2073760;28;20235;-67
2021/04/09 04:14:00;;;;;;;6.20;4.13;;;-2.30;99.90;;;;;;2073896;28;20257;-67
2021/04/09 04:15:00;;;;;;;8.20;4.77;;;-2.20;99.90;;;;;;2074316;28;20237;-67
2021/04/09 04:16:01;;;;;;;5.63;3.97;;;-2.20;99.90;;;;;;2075235;28;20178;-67
2021/04/09 04:17:02;;;;;;;5.78;3.40;;;-2.10;99.90;;;;;;2075391;28;20707;-68
2021/04/09 04:18:03;;;;;;;7.73;3.80;;;-2.10;99.90;;;;;;2075289;28;20250;-67
2021/04/09 04:19:04;;;;;;;4.53;3.17;;;-2.00;99.90;;;;;;2075445;28;20182;-67
2021/04/09 04:20:06;;;;;;;6.28;3.70;;;-2.00;99.90;;;;;;2075406;28;20224;-67
2021/04/09 04:21:07;;;;;;;6.00;3.65;;;-2.00;99.90;;;;;;2074478;28;20232;-67
2021/04/09 04:22:07;;;;;;;8.57;3.93;;;-2.00;99.90;;;;;;2074552;28;20262;-67
2021/04/09 04:23:08;;;;;;;3.77;2.57;;;-2.00;99.90;;;;;;2074685;28;20184;-67
2021/04/09 04:24:09;;;;;;;4.30;2.93;;;-2.00;99.90;;;;;;2074973;28;20182;-67
2021/04/09 04:26:10;;;;;;;3.53;2.60;;;-1.90;99.90;;;;;;2120134;23;20231;-67
2021/04/09 04:27:11;;;;;;;6.90;3.17;;;-1.90;99.90;;;;;;2107420;28;20171;-67
2021/04/09 04:28:12;;;;;;;7.50;3.50;;;-1.80;99.90;;;;;;2107969;28;20587;-67
2021/04/09 04:29:12;;;;;;;4.68;3.13;;;-1.80;99.90;;;;;;2108432;28;20182;-66
2021/04/09 04:30:14;;;;;;;4.90;3.30;;;-1.80;99.90;;;;;;2108285;28;20183;-67
2021/04/09 04:31:15;;;;;;;7.10;3.97;;;-1.80;99.90;;;;;;2107953;28;20672;-67
2021/04/09 04:32:15;;;;;;;9.60;4.50;;;-1.80;99.90;;;;;;2108249;28;20240;-68
2021/04/09 04:33:18;;;;;;;6.97;4.50;;;-1.90;99.90;;;;;;2108236;28;20761;-68
2021/04/09 04:34:19;;;;;;;7.25;4.53;;;-1.90;99.90;;;;;;2108470;28;20175;-67
2021/04/09 04:35:19;;;;;;;8.60;4.63;;;-1.90;99.90;;;;;;2106899;28;20179;-66
2021/04/09 04:36:20;;;;;;;7.47;4.67;;;-1.90;99.90;;;;;;2099238;28;20215;-68
2021/04/09 04:37:21;;;;;;;6.93;4.47;;;-1.90;99.90;;;;;;2099574;28;20270;-66
2021/04/09 04:38:22;;;;;;;5.43;3.57;;;-2.00;99.90;;;;;;2099881;28;20523;-67
2021/04/09 04:39:22;;;;;;;7.00;3.17;;;-1.90;99.90;;;;;;2100044;28;20849;-67
2021/04/09 04:40:23;;;;;;;8.43;4.13;;;-1.90;99.90;;;;;;2099873;28;20216;-67
2021/04/09 04:41:24;;;;;;;8.47;4.03;;;-1.90;99.90;;;;;;2099678;28;20271;-67
2021/04/09 04:42:24;;;;;;;7.90;4.83;;;-1.90;99.90;;;;;;2099976;28;20823;-68
2021/04/09 04:43:25;;;;;;;6.47;4.40;;;-1.90;99.90;;;;;;2100006;28;20176;-66
2021/04/09 04:44:26;;;;;;;6.63;4.50;;;-1.90;99.90;;;;;;2099985;28;20226;-67
2021/04/09 04:45:27;;;;;;;8.40;4.63;;;-1.90;99.90;;;;;;2099886;28;20593;-66
2021/04/09 04:46:28;;;;;;;6.97;4.67;;;-1.90;99.90;;;;;;2099862;28;20187;-67
2021/04/09 04:47:29;;;;;;;8.23;4.67;;;-1.90;99.90;;;;;;2099895;28;20180;-67
2021/04/09 04:48:30;;;;;;;5.10;4.00;;;-1.90;99.90;;;;;;2099144;28;20194;-68
2021/04/09 04:49:32;;;;;;;6.97;4.20;;;-1.90;99.90;;;;;;2091144;28;20192;-67
2021/04/09 04:50:33;;;;;;;7.00;4.70;;;-1.90;99.90;;;;;;2099172;28;20247;-67
2021/04/09 04:51:34;;;;;;;9.18;5.47;;;-1.80;99.90;;;;;;2092458;28;20195;-67
2021/04/09 04:52:35;;;;;;;6.82;4.75;;;-1.80;99.90;;;;;;2083256;28;20177;-67
2021/04/09 04:53:35;;;;;;;7.00;4.13;;;-1.80;99.90;;;;;;2083288;28;20177;-67
2021/04/09 04:54:36;;;;;;;8.23;4.50;;;-1.80;99.90;;;;;;2083265;28;20192;-68
2021/04/09 04:55:37;;;;;;;4.77;3.80;;;-1.80;99.90;;;;;;2083353;28;20712;-67
2021/04/09 04:56:38;;;;;;;7.30;4.20;;;-1.70;99.90;;;;;;2083285;28;20222;-67
2021/04/09 04:57:39;;;;;;;7.47;3.73;;;-1.70;99.90;;;;;;2083287;28;20584;-67
2021/04/09 04:58:39;;;;;;;3.42;2.47;;;-1.70;99.90;;;;;;2083155;28;20258;-66
2021/04/09 04:59:40;;;;;;;5.30;3.10;;;-1.60;99.90;;;;;;2083179;28;20178;-67
2021/04/09 05:00:41;;;;;;;3.87;2.67;;;-1.50;99.90;;;;;;2083242;28;20169;-67
2021/04/09 05:01:41;;;;;;;3.87;2.77;;;-1.40;99.90;;;;;;2083179;28;20525;-66
2021/04/09 05:02:42;;;;;;;6.37;4.27;;;-1.40;99.90;;;;;;2083329;28;20196;-67
2021/04/09 05:03:43;;;;;;;6.17;4.10;;;-1.40;99.90;;;;;;2083211;28;20178;-67
2021/04/09 05:04:44;;;;;;;7.88;4.68;;;-1.40;99.90;;;;;;2083166;28;20880;-67
2021/04/09 05:05:44;;;;;;;7.33;4.30;;;-1.40;99.90;;;;;;2083120;28;20280;-67
2021/04/09 05:06:45;;;;;;;7.23;4.30;;;-1.40;99.90;;;;;;2082290;28;20191;-67
2021/04/09 05:07:47;;;;;;;8.70;4.50;;;-1.40;99.90;;;;;;2081679;28;20176;-67
2021/04/09 05:08:47;;;;;;;5.90;4.20;;;-1.40;99.90;;;;;;2081070;28;20219;-66
2021/04/09 05:09:48;;;;;;;9.43;4.30;;;-1.40;99.90;;;;;;2081102;28;20680;-68
2021/04/09 05:10:48;;;;;;;6.67;4.40;;;-1.30;99.90;;;;;;2081755;28;20182;-67
2021/04/09 05:11:49;;;;;;;6.70;4.17;;;-1.30;99.90;;;;;;2081417;28;20174;-67
2021/04/09 05:12:51;;;;;;;5.50;3.90;;;-1.30;99.90;;;;;;2081712;28;20648;-67
2021/04/09 05:13:51;;;;;;;4.93;4.00;;;-1.20;99.90;;;;;;2081601;28;20530;-67
2021/04/09 05:14:53;;;;;;;6.63;4.50;;;-1.10;99.90;;;;;;2081733;28;20188;-68
2021/04/09 05:15:54;;;;;;;8.10;4.20;;;-1.20;99.90;;;;;;2080846;28;20204;-67
2021/04/09 05:16:55;;;;;;;5.63;4.50;;;-1.10;99.90;;;;;;2081140;28;20293;-67
2021/04/09 05:17:56;;;;;;;7.90;4.83;;;-1.10;99.90;;;;;;2081707;28;20213;-67
2021/04/09 05:18:56;;;;;;;9.50;6.37;;;-1.00;99.90;;;;;;2081569;28;20201;-67
2021/04/09 05:19:57;;;;;;;8.10;5.60;;;-1.00;99.90;;;;;;2081538;28;20204;-68
2021/04/09 05:20:58;;;;;;;7.53;4.80;;;-1.00;99.90;;;;;;2081711;28;20208;-67
2021/04/09 05:21:58;;;;;;;8.23;4.50;;;-0.90;99.90;;;;;;2080756;28;20207;-67
2021/04/09 05:22:59;;;;;;;10.17;5.00;;;-0.90;99.90;;;;;;2081049;28;20644;-68
2021/04/09 05:24:00;;;;;;;7.63;5.27;;;-0.90;99.90;;;;;;2081550;28;20269;-68
2021/04/09 05:25:01;;;;;;;9.70;5.80;;;-0.90;99.90;;;;;;2080975;28;20177;-68
2021/04/09 05:26:01;;;;;;;9.37;5.63;;;-0.90;99.90;;;;;;2080193;28;20998;-67
2021/04/09 05:27:02;;;;;;;8.30;5.63;;;-0.90;99.90;;;;;;2081615;28;20180;-67
2021/04/09 05:28:04;;;;;;;7.63;5.57;;;-0.90;99.90;;;;;;2081550;28;20204;-68